Terminal Aerodrome Forecast
Issued by NWS

Home | Current Version | Previous Version | Text Only | Print | Product List | Glossary On
Versions: 1 2 3 4 5 6 7 8 9 10 11 12
000
FTUS45 KGJT 200531
TAFDRO
TAF
KDRO 200531Z 2006/2106 01005KT P6SM SCT100
     FM201000 07004KT P6SM FEW080 SCT100
     FM201700 18010KT P6SM FEW070 FEW200
     FM202300 25015G25KT P6SM FEW090 FEW200
     FM210300 25006KT P6SM SCT080 BKN150 WS020/24040KT=

USA.gov is the U.S. government's official web portal to all federal, state and local government web resources and services.